Portada
METAR-TAF:

METAR-TAF

Aeroports :

Tak, Tailàndia

latitud: 16-53N, longitud: 099-09E, altitud: 121 m

METAR: manca

Hora: 10:57 (03:57 UTC)

Pronòstic

L'informe es va fer fa 4 hores i 57 minuts, a les 23:00 UTC
Pronòstic vàlid del 18 a les 00 UTC al 18 a les 24 UTC
Vent 8 kt del Oest/Sud-Oest
Visibilitat: 7000 m
Cel ennuvolat a una alçada de 3000 ft
Temporalment
l' 18 a les 08 UTC al 18 a les 14 UTC
Vent 15 kt amb direcció variable amb ràfegues de 25 kt
Visibilitat: 5000 m
Escasses núvols a una alçada de 2500 ft, Cumulonimbus.
Cel ennuvolat a una alçada de 3000 ft
tempesta, pluja

TAF: VTPT 172300Z 1800/1824 25008KT 7000 BKN030 TEMPO 1808/1814 VRB15G25KT 5000 TSRA FEW025CB BKN030

Observacions i pronòstics meteorològics de més de 4000 aeroports (METAR i TAF).

Les estacions disponibles són els punts grocs i vermells al mapa.

Posi el ratolí al punt desitjat per veure el nom de l'estació.

Feu clic per veure les observacions i els pronòstics meteorològics.

Per canviar el mapa: feu clic els botons verds amb una creu de color negre per apropar; al botó verd amb un guió per allunyar la imatge; o en les fletxes verdes per a mapes adjacents.


METAR-TAF: